sensor_id;sensor_type;location;lat;lon;timestamp;pressure;altitude;pressure_sealevel;temperature;humidity
40073;BME280;25774;52.256;9.356;2023-02-14T00:00:35;102561.25;;;2.06;100.00
40073;BME280;25774;52.256;9.356;2023-02-14T00:03:00;102570.03;;;2.11;100.00
40073;BME280;25774;52.256;9.356;2023-02-14T00:05:26;102577.81;;;2.09;100.00
40073;BME280;25774;52.256;9.356;2023-02-14T00:07:53;102575.19;;;2.08;100.00
40073;BME280;25774;52.256;9.356;2023-02-14T00:10:19;102579.72;;;2.21;100.00
40073;BME280;25774;52.256;9.356;2023-02-14T00:12:45;102585.84;;;2.25;100.00
40073;BME280;25774;52.256;9.356;2023-02-14T00:15:11;102575.19;;;2.08;100.00
40073;BME280;25774;52.256;9.356;2023-02-14T00:17:54;102582.88;;;2.00;100.00
40073;BME280;25774;52.256;9.356;2023-02-14T00:20:23;102581.97;;;1.97;100.00
40073;BME280;25774;52.256;9.356;2023-02-14T00:22:49;102592.22;;;1.86;100.00
40073;BME280;25774;52.256;9.356;2023-02-14T00:25:15;102600.13;;;1.94;100.00
40073;BME280;25774;52.256;9.356;2023-02-14T00:27:40;102594.16;;;2.01;100.00
40073;BME280;25774;52.256;9.356;2023-02-14T00:30:07;102598.81;;;2.20;100.00
40073;BME280;25774;52.256;9.356;2023-02-14T00:32:33;102591.00;;;2.20;100.00
40073;BME280;25774;52.256;9.356;2023-02-14T00:34:59;102583.97;;;2.16;100.00
40073;BME280;25774;52.256;9.356;2023-02-14T00:37:24;102564.25;;;1.74;100.00
40073;BME280;25774;52.256;9.356;2023-02-14T00:39:50;102550.41;;;1.78;100.00
40073;BME280;25774;52.256;9.356;2023-02-14T00:42:15;102538.13;;;1.67;100.00
40073;BME280;25774;52.256;9.356;2023-02-14T00:44:42;102536.38;;;1.67;100.00
40073;BME280;25774;52.256;9.356;2023-02-14T00:47:07;102532.88;;;1.65;100.00
40073;BME280;25774;52.256;9.356;2023-02-14T00:49:32;102519.66;;;1.53;100.00
40073;BME280;25774;52.256;9.356;2023-02-14T00:51:58;102512.41;;;1.33;100.00
40073;BME280;25774;52.256;9.356;2023-02-14T00:54:23;102507.78;;;1.17;100.00
40073;BME280;25774;52.256;9.356;2023-02-14T00:56:49;102505.03;;;1.08;100.00
40073;BME280;25774;52.256;9.356;2023-02-14T00:59:14;102506.06;;;1.17;100.00
40073;BME280;25774;52.256;9.356;2023-02-14T01:01:40;102512.13;;;1.18;100.00
40073;BME280;25774;52.256;9.356;2023-02-14T01:04:06;102513.81;;;1.13;100.00
40073;BME280;25774;52.256;9.356;2023-02-14T01:06:31;102518.47;;;1.32;100.00
40073;BME280;25774;52.256;9.356;2023-02-14T01:08:57;102507.78;;;1.15;100.00
40073;BME280;25774;52.256;9.356;2023-02-14T01:11:23;102501.50;;;1.04;100.00
40073;BME280;25774;52.256;9.356;2023-02-14T01:13:50;102508.66;;;1.17;100.00
40073;BME280;25774;52.256;9.356;2023-02-14T01:16:18;102491.09;;;1.03;100.00
40073;BME280;25774;52.256;9.356;2023-02-14T01:18:44;102499.94;;;1.14;100.00
40073;BME280;25774;52.256;9.356;2023-02-14T01:21:14;102499.59;;;0.96;100.00
40073;BME280;25774;52.256;9.356;2023-02-14T01:23:40;102505.84;;;1.05;100.00
40073;BME280;25774;52.256;9.356;2023-02-14T01:26:06;102506.53;;;0.93;100.00
40073;BME280;25774;52.256;9.356;2023-02-14T01:28:32;102503.69;;;0.81;100.00
40073;BME280;25774;52.256;9.356;2023-02-14T01:30:57;102518.78;;;0.99;100.00
40073;BME280;25774;52.256;9.356;2023-02-14T01:33:22;102507.56;;;1.03;100.00
40073;BME280;25774;52.256;9.356;2023-02-14T01:35:47;102517.22;;;1.09;100.00
40073;BME280;25774;52.256;9.356;2023-02-14T01:38:13;102518.97;;;1.11;100.00
40073;BME280;25774;52.256;9.356;2023-02-14T01:40:45;102535.09;;;1.41;100.00
40073;BME280;25774;52.256;9.356;2023-02-14T01:43:14;102533.47;;;1.49;100.00
40073;BME280;25774;52.256;9.356;2023-02-14T01:45:39;102523.22;;;1.59;100.00
40073;BME280;25774;52.256;9.356;2023-02-14T01:48:05;102515.41;;;1.59;100.00
40073;BME280;25774;52.256;9.356;2023-02-14T01:50:34;102516.13;;;1.48;100.00
40073;BME280;25774;52.256;9.356;2023-02-14T01:53:05;102529.19;;;1.51;100.00
40073;BME280;25774;52.256;9.356;2023-02-14T01:55:35;102526.50;;;1.46;100.00
40073;BME280;25774;52.256;9.356;2023-02-14T01:58:10;102530.72;;;1.38;100.00
40073;BME280;25774;52.256;9.356;2023-02-14T02:00:38;102536.72;;;1.35;100.00
40073;BME280;25774;52.256;9.356;2023-02-14T02:03:30;102544.03;;;1.58;100.00
40073;BME280;25774;52.256;9.356;2023-02-14T02:06:04;102548.38;;;1.57;100.00
40073;BME280;25774;52.256;9.356;2023-02-14T02:08:37;102548.34;;;1.56;100.00
40073;BME280;25774;52.256;9.356;2023-02-14T02:11:05;102548.28;;;1.51;100.00
40073;BME280;25774;52.256;9.356;2023-02-14T02:13:31;102555.47;;;1.66;100.00
40073;BME280;25774;52.256;9.356;2023-02-14T02:16:17;102559.03;;;1.73;100.00
40073;BME280;25774;52.256;9.356;2023-02-14T02:24:17;102543.28;;;1.63;100.00
40073;BME280;25774;52.256;9.356;2023-02-14T02:27:16;102539.91;;;1.69;100.00
40073;BME280;25774;52.256;9.356;2023-02-14T02:37:50;102540.81;;;1.74;100.00
40073;BME280;25774;52.256;9.356;2023-02-14T02:40:28;102529.53;;;1.74;100.00
40073;BME280;25774;52.256;9.356;2023-02-14T02:43:10;102540.09;;;1.83;100.00
40073;BME280;25774;52.256;9.356;2023-02-14T02:48:43;102539.13;;;1.78;100.00
40073;BME280;25774;52.256;9.356;2023-02-14T02:51:19;102528.56;;;1.67;100.00
40073;BME280;25774;52.256;9.356;2023-02-14T02:54:43;102531.19;;;1.69;100.00
40073;BME280;25774;52.256;9.356;2023-02-14T02:57:18;102528.59;;;1.69;100.00
40073;BME280;25774;52.256;9.356;2023-02-14T02:59:46;102522.41;;;1.60;100.00
40073;BME280;25774;52.256;9.356;2023-02-14T03:02:19;102525.91;;;1.64;100.00
40073;BME280;25774;52.256;9.356;2023-02-14T03:04:58;102531.75;;;1.49;100.00
40073;BME280;25774;52.256;9.356;2023-02-14T03:16:07;102533.56;;;1.55;100.00
40073;BME280;25774;52.256;9.356;2023-02-14T03:24:23;102520.03;;;1.23;100.00
40073;BME280;25774;52.256;9.356;2023-02-14T03:27:04;102528.88;;;1.32;100.00
40073;BME280;25774;52.256;9.356;2023-02-14T03:29:40;102515.53;;;1.14;100.00
40073;BME280;25774;52.256;9.356;2023-02-14T03:32:10;102517.22;;;1.09;100.00
40073;BME280;25774;52.256;9.356;2023-02-14T03:34:54;102517.41;;;1.21;100.00
40073;BME280;25774;52.256;9.356;2023-02-14T03:37:28;102514.63;;;1.10;100.00
40073;BME280;25774;52.256;9.356;2023-02-14T03:40:08;102522.41;;;1.09;100.00
40073;BME280;25774;52.256;9.356;2023-02-14T03:42:59;102510.84;;;0.93;100.00
40073;BME280;25774;52.256;9.356;2023-02-14T03:45:37;102507.28;;;0.88;100.00
40073;BME280;25774;52.256;9.356;2023-02-14T03:48:07;102508.09;;;0.85;100.00
40073;BME280;25774;52.256;9.356;2023-02-14T03:50:35;102502.72;;;0.76;100.00
40073;BME280;25774;52.256;9.356;2023-02-14T03:53:01;102507.91;;;0.76;100.00
40073;BME280;25774;52.256;9.356;2023-02-14T03:55:35;102508.09;;;0.85;100.00
40073;BME280;25774;52.256;9.356;2023-02-14T03:58:17;102502.81;;;0.81;100.00
40073;BME280;25774;52.256;9.356;2023-02-14T04:00:45;102506.16;;;0.74;100.00
40073;BME280;25774;52.256;9.356;2023-02-14T04:03:15;102500.00;;;0.70;100.00
40073;BME280;25774;52.256;9.356;2023-02-14T04:05:44;102499.28;;;0.77;100.00
40073;BME280;25774;52.256;9.356;2023-02-14T04:08:11;102494.78;;;0.68;100.00
40073;BME280;25774;52.256;9.356;2023-02-14T04:10:45;102489.34;;;0.56;100.00
40073;BME280;25774;52.256;9.356;2023-02-14T04:13:11;102492.00;;;0.59;100.00
40073;BME280;25774;52.256;9.356;2023-02-14T04:15:36;102495.41;;;0.57;100.00
40073;BME280;25774;52.256;9.356;2023-02-14T04:18:02;102488.47;;;0.56;100.00
40073;BME280;25774;52.256;9.356;2023-02-14T04:20:46;102476.22;;;0.49;100.00
40073;BME280;25774;52.256;9.356;2023-02-14T04:23:11;102481.44;;;0.49;100.00
40073;BME280;25774;52.256;9.356;2023-02-14T04:25:37;102486.56;;;0.45;100.00
40073;BME280;25774;52.256;9.356;2023-02-14T04:28:04;102481.44;;;0.50;100.00
40073;BME280;25774;52.256;9.356;2023-02-14T04:30:29;102478.84;;;0.50;100.00
40073;BME280;25774;52.256;9.356;2023-02-14T04:32:55;102473.50;;;0.42;100.00
40073;BME280;25774;52.256;9.356;2023-02-14T04:35:20;102468.50;;;0.52;100.00
40073;BME280;25774;52.256;9.356;2023-02-14T04:37:45;102480.75;;;0.59;100.00
40073;BME280;25774;52.256;9.356;2023-02-14T04:40:11;102481.53;;;0.55;100.00
40073;BME280;25774;52.256;9.356;2023-02-14T04:42:40;102479.81;;;0.55;100.00
40073;BME280;25774;52.256;9.356;2023-02-14T04:45:08;102474.44;;;0.47;100.00
40073;BME280;25774;52.256;9.356;2023-02-14T04:47:33;102474.44;;;0.46;100.00
40073;BME280;25774;52.256;9.356;2023-02-14T04:49:58;102477.03;;;0.46;100.00
40073;BME280;25774;52.256;9.356;2023-02-14T04:52:24;102471.78;;;0.44;100.00
40073;BME280;25774;52.256;9.356;2023-02-14T04:54:49;102481.47;;;0.52;100.00
40073;BME280;25774;52.256;9.356;2023-02-14T04:57:14;102474.50;;;0.51;100.00
40073;BME280;25774;52.256;9.356;2023-02-14T04:59:40;102459.53;;;0.37;100.00
40073;BME280;25774;52.256;9.356;2023-02-14T05:02:05;102463.94;;;0.40;100.00
40073;BME280;25774;52.256;9.356;2023-02-14T05:04:30;102458.59;;;0.32;100.00
40073;BME280;25774;52.256;9.356;2023-02-14T05:06:57;102459.59;;;0.39;100.00
40073;BME280;25774;52.256;9.356;2023-02-14T05:09:22;102449.81;;;0.27;100.00
40073;BME280;25774;52.256;9.356;2023-02-14T05:11:48;102455.00;;;0.26;100.00
40073;BME280;25774;52.256;9.356;2023-02-14T05:14:13;102448.03;;;0.23;100.00
40073;BME280;25774;52.256;9.356;2023-02-14T05:16:38;102458.22;;;0.15;100.00
40073;BME280;25774;52.256;9.356;2023-02-14T05:19:03;102457.34;;;0.15;100.00
40073;BME280;25774;52.256;9.356;2023-02-14T05:21:29;102468.06;;;0.30;100.00
40073;BME280;25774;52.256;9.356;2023-02-14T05:23:58;102468.00;;;0.27;100.00
40073;BME280;25774;52.256;9.356;2023-02-14T05:26:23;102470.78;;;0.36;100.00
40073;BME280;25774;52.256;9.356;2023-02-14T05:28:50;102464.66;;;0.34;100.00
40073;BME280;25774;52.256;9.356;2023-02-14T05:31:16;102468.88;;;0.28;100.00
40073;BME280;25774;52.256;9.356;2023-02-14T05:33:41;102466.19;;;0.23;100.00
40073;BME280;25774;52.256;9.356;2023-02-14T05:36:07;102470.53;;;0.24;100.00
40073;BME280;25774;52.256;9.356;2023-02-14T05:38:33;102472.28;;;0.25;100.00
40073;BME280;25774;52.256;9.356;2023-02-14T05:40:59;102468.00;;;0.29;100.00
40073;BME280;25774;52.256;9.356;2023-02-14T05:43:24;102472.13;;;0.17;100.00
40073;BME280;25774;52.256;9.356;2023-02-14T05:45:50;102479.19;;;0.23;100.00
40073;BME280;25774;52.256;9.356;2023-02-14T05:48:16;102477.47;;;0.25;100.00
40073;BME280;25774;52.256;9.356;2023-02-14T05:50:44;102481.78;;;0.25;100.00
40073;BME280;25774;52.256;9.356;2023-02-14T05:53:10;102471.38;;;0.23;100.00
40073;BME280;25774;52.256;9.356;2023-02-14T05:55:35;102473.78;;;0.14;100.00
40073;BME280;25774;52.256;9.356;2023-02-14T05:58:01;102478.13;;;0.15;100.00
40073;BME280;25774;52.256;9.356;2023-02-14T06:00:26;102483.38;;;0.18;100.00
40073;BME280;25774;52.256;9.356;2023-02-14T06:02:52;102473.72;;;0.11;100.00
40073;BME280;25774;52.256;9.356;2023-02-14T06:05:17;102491.13;;;0.15;100.00
40073;BME280;25774;52.256;9.356;2023-02-14T06:07:44;102488.56;;;0.16;100.00
40073;BME280;25774;52.256;9.356;2023-02-14T06:10:19;102487.84;;;0.23;100.00
40073;BME280;25774;52.256;9.356;2023-02-14T06:12:45;102484.91;;;0.07;100.00
40073;BME280;25774;52.256;9.356;2023-02-14T06:15:10;102487.56;;;0.10;100.00
40073;BME280;25774;52.256;9.356;2023-02-14T06:17:36;102497.97;;;0.11;100.00
40073;BME280;25774;52.256;9.356;2023-02-14T06:20:01;102489.19;;;0.06;100.00
40073;BME280;25774;52.256;9.356;2023-02-14T06:22:27;102490.09;;;0.08;100.00
40073;BME280;25774;52.256;9.356;2023-02-14T06:24:52;102497.16;;;0.14;100.00
40073;BME280;25774;52.256;9.356;2023-02-14T06:27:18;102502.47;;;0.20;100.00
40073;BME280;25774;52.256;9.356;2023-02-14T06:29:44;102506.81;;;0.21;100.00
40073;BME280;25774;52.256;9.356;2023-02-14T06:32:09;102500.63;;;0.16;100.00
40073;BME280;25774;52.256;9.356;2023-02-14T06:34:34;102495.31;;;0.08;100.00
40073;BME280;25774;52.256;9.356;2023-02-14T06:36:59;102503.88;;;0.06;100.00
40073;BME280;25774;52.256;9.356;2023-02-14T06:39:25;102506.56;;;0.09;100.00
40073;BME280;25774;52.256;9.356;2023-02-14T06:41:50;102507.34;;;0.06;100.00
40073;BME280;25774;52.256;9.356;2023-02-14T06:44:16;102510.13;;;0.14;100.00
40073;BME280;25774;52.256;9.356;2023-02-14T06:46:42;102505.84;;;0.16;100.00
40073;BME280;25774;52.256;9.356;2023-02-14T06:49:08;102515.56;;;0.25;100.00
40073;BME280;25774;52.256;9.356;2023-02-14T06:51:34;102518.50;;;0.41;100.00
40073;BME280;25774;52.256;9.356;2023-02-14T06:54:00;102516.63;;;0.34;100.00
40073;BME280;25774;52.256;9.356;2023-02-14T06:56:26;102510.63;;;0.37;100.00
40073;BME280;25774;52.256;9.356;2023-02-14T06:58:52;102518.53;;;0.43;100.00
40073;BME280;25774;52.256;9.356;2023-02-14T07:01:17;102514.34;;;0.50;100.00
40073;BME280;25774;52.256;9.356;2023-02-14T07:03:42;102506.34;;;0.39;100.00
40073;BME280;25774;52.256;9.356;2023-02-14T07:06:08;102504.75;;;0.47;100.00
40073;BME280;25774;52.256;9.356;2023-02-14T07:08:33;102517.06;;;0.56;100.00
40073;BME280;25774;52.256;9.356;2023-02-14T07:10:59;102518.25;;;0.73;100.00
40073;BME280;25774;52.256;9.356;2023-02-14T07:13:24;102507.53;;;0.56;100.00
40073;BME280;25774;52.256;9.356;2023-02-14T07:15:49;102509.50;;;0.68;100.00
40073;BME280;25774;52.256;9.356;2023-02-14T07:18:16;102504.44;;;0.76;100.00
40073;BME280;25774;52.256;9.356;2023-02-14T07:20:41;102515.19;;;0.94;100.00
40073;BME280;25774;52.256;9.356;2023-02-14T07:23:09;102508.44;;;1.04;100.00
40073;BME280;25774;52.256;9.356;2023-02-14T07:25:35;102505.84;;;1.04;100.00
40073;BME280;25774;52.256;9.356;2023-02-14T07:28:00;102509.69;;;1.27;100.00
40073;BME280;25774;52.256;9.356;2023-02-14T07:30:26;102509.69;;;1.27;100.00
40073;BME280;25774;52.256;9.356;2023-02-14T07:32:52;102500.09;;;1.22;100.00
40073;BME280;25774;52.256;9.356;2023-02-14T07:35:17;102494.94;;;1.26;100.00
40073;BME280;25774;52.256;9.356;2023-02-14T07:37:43;102496.94;;;1.43;100.00
40073;BME280;25774;52.256;9.356;2023-02-14T07:40:09;102487.41;;;1.43;100.00
40073;BME280;25774;52.256;9.356;2023-02-14T07:42:34;102485.78;;;1.50;100.00
40073;BME280;25774;52.256;9.356;2023-02-14T07:45:00;102485.78;;;1.48;100.00
40073;BME280;25774;52.256;9.356;2023-02-14T07:47:26;102490.31;;;1.60;100.00
40073;BME280;25774;52.256;9.356;2023-02-14T07:49:51;102504.44;;;1.77;100.00
40073;BME280;25774;52.256;9.356;2023-02-14T07:52:17;102485.09;;;1.61;100.00
40073;BME280;25774;52.256;9.356;2023-02-14T07:54:42;102498.13;;;1.61;100.00
40073;BME280;25774;52.256;9.356;2023-02-14T07:57:09;102500.91;;;1.75;100.00
40073;BME280;25774;52.256;9.356;2023-02-14T07:59:35;102508.03;;;1.85;100.00
40073;BME280;25774;52.256;9.356;2023-02-14T08:02:00;102516.13;;;2.07;100.00
40073;BME280;25774;52.256;9.356;2023-02-14T08:04:41;102521.53;;;2.22;100.00
40073;BME280;25774;52.256;9.356;2023-02-14T08:07:07;102519.16;;;2.39;100.00
40073;BME280;25774;52.256;9.356;2023-02-14T08:09:32;102515.66;;;2.37;100.00
40073;BME280;25774;52.256;9.356;2023-02-14T08:11:58;102525.63;;;2.72;100.00
40073;BME280;25774;52.256;9.356;2023-02-14T08:14:44;102519.66;;;2.82;100.00
40073;BME280;25774;52.256;9.356;2023-02-14T08:17:10;102510.78;;;2.68;100.00
40073;BME280;25774;52.256;9.356;2023-02-14T08:19:37;102509.91;;;2.64;100.00
40073;BME280;25774;52.256;9.356;2023-02-14T08:22:04;102517.97;;;2.86;100.00
40073;BME280;25774;52.256;9.356;2023-02-14T08:24:31;102497.91;;;2.78;100.00
40073;BME280;25774;52.256;9.356;2023-02-14T08:26:56;102495.22;;;2.72;100.00
40073;BME280;25774;52.256;9.356;2023-02-14T08:29:22;102498.94;;;2.94;100.00
40073;BME280;25774;52.256;9.356;2023-02-14T08:31:47;102498.00;;;2.89;100.00
40073;BME280;25774;52.256;9.356;2023-02-14T08:34:14;102494.56;;;2.92;100.00
40073;BME280;25774;52.256;9.356;2023-02-14T08:36:40;102516.56;;;3.21;100.00
40073;BME280;25774;52.256;9.356;2023-02-14T08:39:07;102513.19;;;3.35;100.00
40073;BME280;25774;52.256;9.356;2023-02-14T08:41:33;102514.97;;;3.36;100.00
40073;BME280;25774;52.256;9.356;2023-02-14T08:43:58;102520.34;;;3.60;100.00
40073;BME280;25774;52.256;9.356;2023-02-14T08:46:24;102508.16;;;3.56;100.00
40073;BME280;25774;52.256;9.356;2023-02-14T08:48:50;102506.56;;;3.73;100.00
40073;BME280;25774;52.256;9.356;2023-02-14T08:51:17;102517.06;;;3.86;100.00
40073;BME280;25774;52.256;9.356;2023-02-14T08:53:43;102510.94;;;3.82;100.00
40073;BME280;25774;52.256;9.356;2023-02-14T08:56:10;102505.88;;;4.08;100.00
40073;BME280;25774;52.256;9.356;2023-02-14T08:58:36;102505.03;;;4.12;100.00
40073;BME280;25774;52.256;9.356;2023-02-14T09:01:09;102505.09;;;4.22;100.00
40073;BME280;25774;52.256;9.356;2023-02-14T09:03:36;102498.06;;;4.17;100.00
40073;BME280;25774;52.256;9.356;2023-02-14T09:06:02;102503.41;;;4.36;100.00
40073;BME280;25774;52.256;9.356;2023-02-14T09:08:28;102492.94;;;4.36;100.00
40073;BME280;25774;52.256;9.356;2023-02-14T09:10:55;102494.72;;;4.45;100.00
40073;BME280;25774;52.256;9.356;2023-02-14T09:13:21;102494.78;;;4.68;100.00
40073;BME280;25774;52.256;9.356;2023-02-14T09:15:47;102492.19;;;4.81;100.00
40073;BME280;25774;52.256;9.356;2023-02-14T09:18:12;102480.84;;;4.78;100.00
40073;BME280;25774;52.256;9.356;2023-02-14T09:20:37;102477.41;;;4.82;100.00
40073;BME280;25774;52.256;9.356;2023-02-14T09:23:03;102470.41;;;4.76;100.00
40073;BME280;25774;52.256;9.356;2023-02-14T09:25:28;102484.41;;;5.01;100.00
40073;BME280;25774;52.256;9.356;2023-02-14T09:27:53;102479.19;;;5.30;100.00
40073;BME280;25774;52.256;9.356;2023-02-14T09:30:19;102476.53;;;5.20;100.00
40073;BME280;25774;52.256;9.356;2023-02-14T09:32:44;102468.69;;;5.35;100.00
40073;BME280;25774;52.256;9.356;2023-02-14T09:35:09;102473.91;;;5.64;100.00
40073;BME280;25774;52.256;9.356;2023-02-14T09:37:35;102472.13;;;5.71;100.00
40073;BME280;25774;52.256;9.356;2023-02-14T09:40:00;102465.97;;;6.02;100.00
40073;BME280;25774;52.256;9.356;2023-02-14T09:44:55;102451.16;;;5.98;100.00
40073;BME280;25774;52.256;9.356;2023-02-14T09:49:59;102440.59;;;6.17;100.00
40073;BME280;25774;52.256;9.356;2023-02-14T09:52:26;102441.31;;;6.51;100.00
40073;BME280;25774;52.256;9.356;2023-02-14T09:54:55;102417.75;;;6.37;100.00
40073;BME280;25774;52.256;9.356;2023-02-14T09:57:28;102408.19;;;6.33;100.00
40073;BME280;25774;52.256;9.356;2023-02-14T10:00:12;102408.94;;;6.47;100.00
40073;BME280;25774;52.256;9.356;2023-02-14T10:02:56;102414.03;;;6.77;100.00
40073;BME280;25774;52.256;9.356;2023-02-14T10:05:27;102419.75;;;7.26;100.00
40073;BME280;25774;52.256;9.356;2023-02-14T10:08:03;102401.28;;;7.32;100.00
40073;BME280;25774;52.256;9.356;2023-02-14T10:10:42;102394.19;;;7.42;100.00
40073;BME280;25774;52.256;9.356;2023-02-14T10:13:20;102386.91;;;7.67;100.00
40073;BME280;25774;52.256;9.356;2023-02-14T10:15:58;102378.13;;;7.69;100.00
40073;BME280;25774;52.256;9.356;2023-02-14T10:18:35;102358.84;;;7.71;100.00
40073;BME280;25774;52.256;9.356;2023-02-14T10:21:05;102341.66;;;7.42;100.00
40073;BME280;25774;52.256;9.356;2023-02-14T10:23:41;102334.78;;;7.32;100.00
40073;BME280;25774;52.256;9.356;2023-02-14T10:26:20;102356.66;;;8.05;100.00
40073;BME280;25774;52.256;9.356;2023-02-14T10:28:49;102328.91;;;7.82;100.00
40073;BME280;25774;52.256;9.356;2023-02-14T10:34:29;102323.44;;;8.58;100.00
40073;BME280;25774;52.256;9.356;2023-02-14T10:40:25;102305.19;;;8.49;100.00
40073;BME280;25774;52.256;9.356;2023-02-14T10:51:41;102259.72;;;8.41;100.00
40073;BME280;25774;52.256;9.356;2023-02-14T10:54:26;102267.22;;;8.65;100.00
40073;BME280;25774;52.256;9.356;2023-02-14T10:59:32;102248.72;;;8.68;100.00
40073;BME280;25774;52.256;9.356;2023-02-14T11:02:00;102238.22;;;8.67;100.00
40073;BME280;25774;52.256;9.356;2023-02-14T11:04:25;102250.00;;;8.94;100.00
40073;BME280;25774;52.256;9.356;2023-02-14T11:06:52;102232.63;;;8.83;100.00
40073;BME280;25774;52.256;9.356;2023-02-14T11:09:19;102237.56;;;9.02;100.00
40073;BME280;25774;52.256;9.356;2023-02-14T11:11:58;102242.84;;;9.44;100.00
40073;BME280;25774;52.256;9.356;2023-02-14T11:14:27;102236.56;;;9.51;100.00
40073;BME280;25774;52.256;9.356;2023-02-14T11:16:55;102215.63;;;9.84;100.00
40073;BME280;25774;52.256;9.356;2023-02-14T11:21:54;102211.09;;;9.89;100.00
40073;BME280;25774;52.256;9.356;2023-02-14T11:24:37;102186.53;;;9.87;100.00
40073;BME280;25774;52.256;9.356;2023-02-14T11:32:12;102184.25;;;10.77;100.00
40073;BME280;25774;52.256;9.356;2023-02-14T11:34:41;102166.34;;;10.88;100.00
40073;BME280;25774;52.256;9.356;2023-02-14T11:37:30;102168.94;;;11.20;100.00
40073;BME280;25774;52.256;9.356;2023-02-14T11:39:59;102153.81;;;10.95;100.00
40073;BME280;25774;52.256;9.356;2023-02-14T11:45:01;102131.84;;;11.23;100.00
40073;BME280;25774;52.256;9.356;2023-02-14T11:47:29;102132.91;;;11.17;100.00
40073;BME280;25774;52.256;9.356;2023-02-14T11:50:06;102115.19;;;11.21;100.00
40073;BME280;25774;52.256;9.356;2023-02-14T11:52:53;102113.59;;;11.15;100.00
40073;BME280;25774;52.256;9.356;2023-02-14T11:55:31;102128.47;;;11.47;100.00
40073;BME280;25774;52.256;9.356;2023-02-14T11:58:02;102098.22;;;11.28;100.00
40073;BME280;25774;52.256;9.356;2023-02-14T12:00:29;102090.34;;;10.97;100.00
40073;BME280;25774;52.256;9.356;2023-02-14T12:02:58;102108.97;;;11.22;100.00
40073;BME280;25774;52.256;9.356;2023-02-14T12:05:31;102098.88;;;11.36;100.00
40073;BME280;25774;52.256;9.356;2023-02-14T12:08:00;102103.53;;;11.54;100.00
40073;BME280;25774;52.256;9.356;2023-02-14T12:10:30;102059.81;;;11.16;100.00
40073;BME280;25774;52.256;9.356;2023-02-14T12:13:02;102099.84;;;11.60;100.00
40073;BME280;25774;52.256;9.356;2023-02-14T12:15:39;102068.56;;;11.46;100.00
40073;BME280;25774;52.256;9.356;2023-02-14T12:18:31;102056.97;;;11.24;100.00
40073;BME280;25774;52.256;9.356;2023-02-14T12:21:10;102080.00;;;11.73;100.00
40073;BME280;25774;52.256;9.356;2023-02-14T12:31:38;102037.53;;;12.04;100.00
40073;BME280;25774;52.256;9.356;2023-02-14T12:34:04;102032.59;;;12.19;100.00
40073;BME280;25774;52.256;9.356;2023-02-14T12:36:56;102032.66;;;12.42;100.00
40073;BME280;25774;52.256;9.356;2023-02-14T12:39:20;102010.66;;;12.40;100.00
40073;BME280;25774;52.256;9.356;2023-02-14T12:47:17;101994.00;;;12.60;100.00
40073;BME280;25774;52.256;9.356;2023-02-14T12:52:37;101979.38;;;12.95;100.00
40073;BME280;25774;52.256;9.356;2023-02-14T12:55:28;101965.03;;;13.01;100.00
40073;BME280;25774;52.256;9.356;2023-02-14T12:58:08;101984.75;;;13.38;100.00
40073;BME280;25774;52.256;9.356;2023-02-14T13:08:26;101892.28;;;13.51;100.00
40073;BME280;25774;52.256;9.356;2023-02-14T13:11:34;101889.34;;;13.96;100.00
40073;BME280;25774;52.256;9.356;2023-02-14T13:19:49;101829.16;;;14.34;100.00
40073;BME280;25774;52.256;9.356;2023-02-14T13:22:15;101830.34;;;14.46;100.00
40073;BME280;25774;52.256;9.356;2023-02-14T13:24:45;101765.72;;;14.64;100.00
40073;BME280;25774;52.256;9.356;2023-02-14T13:27:35;101808.13;;;14.83;100.00
40073;BME280;25774;52.256;9.356;2023-02-14T13:30:13;101753.53;;;14.78;100.00
40073;BME280;25774;52.256;9.356;2023-02-14T13:32:45;101753.13;;;15.03;100.00
40073;BME280;25774;52.256;9.356;2023-02-14T13:35:16;101772.38;;;15.24;100.00
40073;BME280;25774;52.256;9.356;2023-02-14T13:37:55;101685.19;;;14.97;100.00
40073;BME280;25774;52.256;9.356;2023-02-14T13:40:24;101664.75;;;14.64;100.00
40073;BME280;25774;52.256;9.356;2023-02-14T13:42:53;101681.25;;;14.71;100.00
40073;BME280;25774;52.256;9.356;2023-02-14T13:48:18;101745.00;;;14.71;100.00
40073;BME280;25774;52.256;9.356;2023-02-14T13:51:04;101757.97;;;14.95;100.00
40073;BME280;25774;52.256;9.356;2023-02-14T13:55:55;101732.97;;;14.81;100.00
40073;BME280;25774;52.256;9.356;2023-02-14T13:58:22;101741.84;;;14.98;100.00
40073;BME280;25774;52.256;9.356;2023-02-14T14:00:50;101719.53;;;14.84;100.00
40073;BME280;25774;52.256;9.356;2023-02-14T14:06:05;101732.34;;;14.59;100.00
40073;BME280;25774;52.256;9.356;2023-02-14T14:11:09;101683.31;;;14.30;100.00
40073;BME280;25774;52.256;9.356;2023-02-14T14:18:47;101715.44;;;14.42;100.00
40073;BME280;25774;52.256;9.356;2023-02-14T14:21:24;101750.13;;;14.39;100.00
40073;BME280;25774;52.256;9.356;2023-02-14T14:24:29;101742.75;;;14.45;100.00
40073;BME280;25774;52.256;9.356;2023-02-14T14:27:15;101721.13;;;14.35;100.00
40073;BME280;25774;52.256;9.356;2023-02-14T14:29:49;101779.53;;;14.35;100.00
40073;BME280;25774;52.256;9.356;2023-02-14T14:32:26;101719.31;;;14.18;100.00
40073;BME280;25774;52.256;9.356;2023-02-14T14:34:59;101746.19;;;13.93;100.00
40073;BME280;25774;52.256;9.356;2023-02-14T14:37:32;101788.78;;;13.90;100.00
40073;BME280;25774;52.256;9.356;2023-02-14T14:40:00;101748.06;;;13.72;100.00
40073;BME280;25774;52.256;9.356;2023-02-14T14:42:37;101766.66;;;13.72;100.00
40073;BME280;25774;52.256;9.356;2023-02-14T14:45:07;101732.72;;;13.60;100.00
40073;BME280;25774;52.256;9.356;2023-02-14T14:47:38;101784.59;;;13.65;100.00
40073;BME280;25774;52.256;9.356;2023-02-14T14:50:07;101786.63;;;13.60;100.00